Terminal Aerodrome Forecast
Issued by NWS El Paso, TX

Home | Current Version | Previous Version | Text Only | Print | Product List | Glossary On
Versions: 1 2 3 4 5 6 7 8 9 10 11 12 13 14 15 16 17 18
000
FTUS44 KEPZ 291100 RRA
TAFELP
TAF
KELP 291143Z 2912/3012 35011KT P6SM VCSH SCT090 BKN200
     FM291600 20007KT P6SM FEW090 SCT250
     FM292200 21007KT P6SM VCTS SCT080CB SCT250
     FM300500 23006KT P6SM SCT080 SCT250=

USA.gov is the U.S. government's official web portal to all federal, state and local government web resources and services.